createdAt,value
2018-03-29T00:02:01.426Z,82.50
2018-03-29T00:04:29.694Z,82.00
2018-03-29T00:06:57.158Z,81.90
2018-03-29T00:09:24.630Z,81.20
2018-03-29T00:11:52.122Z,80.20
2018-03-29T00:14:19.616Z,79.90
2018-03-29T00:16:47.105Z,79.70
2018-03-29T00:19:14.608Z,79.00
2018-03-29T00:21:42.104Z,78.30
2018-03-29T00:24:09.613Z,78.40
2018-03-29T00:26:37.279Z,78.10
2018-03-29T00:29:04.766Z,77.70
2018-03-29T00:31:32.227Z,78.10
2018-03-29T00:33:59.734Z,77.20
2018-03-29T00:36:27.960Z,73.50
2018-03-29T00:38:55.444Z,72.90
2018-03-29T00:41:22.930Z,73.10
2018-03-29T00:43:51.190Z,70.20
2018-03-29T00:46:19.475Z,70.50
2018-03-29T00:48:47.722Z,70.80
2018-03-29T00:51:15.199Z,70.70
2018-03-29T00:53:45.291Z,70.50
2018-03-29T00:56:12.799Z,70.30
2018-03-29T00:58:41.057Z,68.90
2018-03-29T01:01:08.535Z,68.80
2018-03-29T01:03:36.054Z,68.60
2018-03-29T01:06:04.243Z,68.40
2018-03-29T01:08:33.643Z,68.60
2018-03-29T01:11:01.138Z,68.20
2018-03-29T01:13:29.403Z,66.70
2018-03-29T01:15:57.014Z,66.70
2018-03-29T01:18:24.544Z,67.10
2018-03-29T01:20:52.117Z,67.00
2018-03-29T01:23:19.638Z,67.10
2018-03-29T01:25:47.909Z,65.10
2018-03-29T01:28:15.395Z,65.10
2018-03-29T01:30:42.920Z,64.40
2018-03-29T01:33:11.226Z,64.30
2018-03-29T01:35:38.781Z,64.20
2018-03-29T01:38:07.041Z,63.90
2018-03-29T01:40:34.522Z,63.90
2018-03-29T01:43:02.829Z,64.50
2018-03-29T01:45:30.510Z,64.50
2018-03-29T01:47:58.757Z,64.40
2018-03-29T01:50:26.273Z,64.40
2018-03-29T01:52:53.754Z,64.60
2018-03-29T01:55:21.257Z,64.60
2018-03-29T01:57:48.793Z,64.60
2018-03-29T02:00:16.300Z,64.40
2018-03-29T02:02:43.784Z,64.20
2018-03-29T02:05:12.021Z,63.70
2018-03-29T02:07:40.301Z,62.00
2018-03-29T02:10:08.574Z,60.80
2018-03-29T02:12:36.879Z,60.00
2018-03-29T02:15:04.449Z,60.00
2018-03-29T02:17:31.933Z,58.90
2018-03-29T02:19:59.455Z,57.50
2018-03-29T02:22:27.035Z,57.40
2018-03-29T02:24:54.595Z,57.60
2018-03-29T02:27:22.881Z,57.40
2018-03-29T02:29:50.367Z,57.40
2018-03-29T02:32:17.857Z,57.80
2018-03-29T02:34:45.319Z,58.20
2018-03-29T02:37:12.829Z,58.60
2018-03-29T02:39:40.400Z,59.10
2018-03-29T02:42:07.894Z,59.50
2018-03-29T02:44:35.516Z,59.70
2018-03-29T02:47:03.053Z,59.90
2018-03-29T02:49:30.610Z,60.30
2018-03-29T02:51:58.104Z,60.60
2018-03-29T02:54:25.622Z,61.30
2018-03-29T02:56:53.912Z,62.10
2018-03-29T02:59:22.221Z,62.70
2018-03-29T03:01:49.694Z,62.70
2018-03-29T03:04:17.213Z,63.10
2018-03-29T03:06:44.779Z,63.50
2018-03-29T03:09:12.335Z,63.60
2018-03-29T03:11:39.870Z,63.60
2018-03-29T03:14:08.100Z,63.70
2018-03-29T03:16:35.761Z,63.70
2018-03-29T03:19:03.307Z,63.70
2018-03-29T03:21:30.784Z,63.80
2018-03-29T03:23:58.424Z,63.80
2018-03-29T03:26:26.245Z,63.40
2018-03-29T03:28:53.741Z,63.20
2018-03-29T03:31:21.380Z,63.20
2018-03-29T03:33:48.954Z,62.40
2018-03-29T03:36:16.513Z,62.20
2018-03-29T03:38:44.068Z,62.50
2018-03-29T03:41:11.550Z,62.50
2018-03-29T03:43:39.092Z,62.50
2018-03-29T03:46:06.592Z,62.60
2018-03-29T03:48:34.084Z,61.90
2018-03-29T03:51:01.594Z,61.40
2018-03-29T03:53:29.082Z,61.20
2018-03-29T03:55:57.062Z,61.10
2018-03-29T03:58:24.539Z,60.90
2018-03-29T04:00:52.068Z,60.80
2018-03-29T04:03:19.606Z,60.80
2018-03-29T04:05:47.920Z,61.40
2018-03-29T04:08:15.424Z,62.90
2018-03-29T04:10:42.930Z,63.80
2018-03-29T04:13:10.445Z,64.70
2018-03-29T04:15:37.962Z,65.20
2018-03-29T04:18:05.664Z,65.40
2018-03-29T04:20:33.300Z,66.00
2018-03-29T04:23:00.800Z,66.50
2018-03-29T04:25:28.416Z,66.40
2018-03-29T04:27:55.924Z,66.70
2018-03-29T04:30:23.418Z,67.00
2018-03-29T04:32:50.939Z,66.80
2018-03-29T04:35:18.504Z,67.70
2018-03-29T04:37:46.016Z,66.60
2018-03-29T04:40:13.644Z,66.10
2018-03-29T04:42:41.206Z,65.50
2018-03-29T04:45:08.864Z,64.10
2018-03-29T04:47:37.352Z,63.20
2018-03-29T04:50:05.605Z,63.90
2018-03-29T04:52:33.078Z,63.10
2018-03-29T04:55:00.601Z,62.80
2018-03-29T04:57:28.154Z,62.10
2018-03-29T04:59:55.713Z,61.40
2018-03-29T05:02:23.185Z,60.60
2018-03-29T05:04:50.944Z,59.60
2018-03-29T05:07:18.525Z,59.20
2018-03-29T05:09:46.003Z,58.90
2018-03-29T05:12:13.648Z,58.70
2018-03-29T05:14:41.209Z,58.20
2018-03-29T05:17:08.697Z,57.80
2018-03-29T05:19:36.315Z,57.60
2018-03-29T05:22:03.801Z,57.70
2018-03-29T05:24:31.313Z,57.60
2018-03-29T05:26:58.788Z,57.50
2018-03-29T05:29:26.304Z,57.20
2018-03-29T05:31:54.555Z,57.50
2018-03-29T05:34:22.063Z,57.50
2018-03-29T05:36:49.674Z,57.40
2018-03-29T05:39:17.159Z,57.30
2018-03-29T05:41:44.702Z,57.00
2018-03-29T05:44:12.190Z,57.00
2018-03-29T05:46:40.425Z,56.60
2018-03-29T05:49:07.933Z,56.60
2018-03-29T05:51:36.187Z,56.40
2018-03-29T05:54:03.700Z,56.40
2018-03-29T05:56:31.975Z,57.20
2018-03-29T05:58:59.590Z,57.10
2018-03-29T06:01:27.249Z,57.40
2018-03-29T06:03:54.809Z,57.10
2018-03-29T06:06:22.305Z,56.90
2018-03-29T06:08:50.567Z,56.60
2018-03-29T06:11:18.127Z,56.50
2018-03-29T06:13:45.602Z,56.60
2018-03-29T06:16:16.968Z,56.40
2018-03-29T06:18:44.523Z,56.50
2018-03-29T06:21:12.081Z,56.60
2018-03-29T06:23:39.641Z,56.30
2018-03-29T06:26:07.494Z,56.20
2018-03-29T06:28:34.975Z,56.20
2018-03-29T06:31:02.699Z,56.30
2018-03-29T06:33:30.173Z,56.60
2018-03-29T06:35:58.267Z,56.70
2018-03-29T06:38:25.824Z,56.80
2018-03-29T06:40:53.339Z,56.40
2018-03-29T06:43:22.267Z,56.40
2018-03-29T06:45:49.778Z,56.30
2018-03-29T06:48:20.805Z,56.90
2018-03-29T06:50:49.069Z,57.10
2018-03-29T06:53:16.559Z,57.10
2018-03-29T06:55:44.828Z,57.20
2018-03-29T06:58:12.402Z,57.20
2018-03-29T07:00:39.887Z,57.20
2018-03-29T07:03:07.381Z,58.00
2018-03-29T07:05:35.629Z,58.10
2018-03-29T07:08:03.176Z,58.00
2018-03-29T07:10:30.655Z,58.00
2018-03-29T07:12:58.293Z,58.60
2018-03-29T07:15:25.848Z,58.10
2018-03-29T07:17:53.345Z,58.10
2018-03-29T07:20:20.989Z,58.50
2018-03-29T07:22:48.471Z,58.80
2018-03-29T07:25:15.952Z,58.90
2018-03-29T07:27:43.419Z,58.60
2018-03-29T07:30:11.683Z,58.10
2018-03-29T07:32:39.195Z,58.10
2018-03-29T07:35:06.666Z,57.10
2018-03-29T07:37:34.140Z,57.10
2018-03-29T07:40:01.681Z,57.00
2018-03-29T07:42:29.250Z,56.10
2018-03-29T07:44:56.796Z,56.10
2018-03-29T07:47:24.267Z,55.50
2018-03-29T07:49:52.516Z,55.50
2018-03-29T07:52:20.016Z,55.40
2018-03-29T07:54:48.332Z,54.70
2018-03-29T07:57:15.957Z,54.60
2018-03-29T07:59:43.512Z,54.70
2018-03-29T08:02:11.032Z,54.70
2018-03-29T08:04:39.278Z,53.30
2018-03-29T08:07:06.783Z,53.30
2018-03-29T08:09:34.286Z,53.80
2018-03-29T08:12:01.817Z,53.20
2018-03-29T08:14:29.358Z,53.30
2018-03-29T08:16:57.660Z,53.50
2018-03-29T08:19:25.239Z,53.50
2018-03-29T08:21:52.716Z,52.70
2018-03-29T08:24:20.216Z,51.90
2018-03-29T08:26:47.692Z,52.90
2018-03-29T08:29:15.198Z,52.80
2018-03-29T08:31:42.687Z,52.20
2018-03-29T08:34:10.171Z,52.00
2018-03-29T08:36:37.698Z,52.20
2018-03-29T08:39:06.116Z,53.00
2018-03-29T08:41:34.444Z,53.50
2018-03-29T08:44:01.918Z,53.50
2018-03-29T08:46:31.038Z,55.10
2018-03-29T08:48:58.532Z,55.00
2018-03-29T08:51:26.072Z,55.50
2018-03-29T08:53:53.938Z,55.50
2018-03-29T08:56:23.261Z,56.30
2018-03-29T08:58:51.566Z,56.40
2018-03-29T09:01:19.066Z,56.40
2018-03-29T09:03:47.310Z,56.20
2018-03-29T09:06:14.832Z,56.20
2018-03-29T09:08:42.333Z,56.00
2018-03-29T09:11:09.870Z,55.90
2018-03-29T09:13:37.437Z,55.70
2018-03-29T09:16:04.950Z,55.80
2018-03-29T09:18:32.432Z,55.60
2018-03-29T09:20:59.978Z,55.20
2018-03-29T09:23:27.501Z,53.90
2018-03-29T09:25:55.083Z,53.30
2018-03-29T09:28:22.578Z,53.10
2018-03-29T09:30:50.808Z,51.60
2018-03-29T09:33:18.334Z,51.50
2018-03-29T09:35:45.817Z,51.20
2018-03-29T09:38:13.476Z,50.40
2018-03-29T09:40:41.045Z,50.50
2018-03-29T09:43:08.510Z,50.40
2018-03-29T09:45:36.055Z,50.70
2018-03-29T09:48:03.532Z,51.00
2018-03-29T09:50:31.817Z,51.00
2018-03-29T09:52:59.394Z,51.00
2018-03-29T09:55:27.774Z,51.20
2018-03-29T09:57:55.317Z,51.00
2018-03-29T10:00:28.458Z,51.40
2018-03-29T10:02:56.726Z,51.20
2018-03-29T10:05:29.866Z,51.20
2018-03-29T10:07:57.480Z,50.00
2018-03-29T10:10:24.968Z,49.40
2018-03-29T10:12:52.499Z,49.30
2018-03-29T10:15:19.993Z,48.60
2018-03-29T10:17:47.603Z,47.90
2018-03-29T10:20:15.157Z,47.20
2018-03-29T10:22:42.693Z,47.50
2018-03-29T10:25:11.094Z,46.70
2018-03-29T10:27:38.599Z,46.60
2018-03-29T10:30:06.112Z,45.90
2018-03-29T10:32:33.599Z,45.40
2018-03-29T10:35:01.124Z,45.50
2018-03-29T10:37:28.643Z,45.70
2018-03-29T10:39:56.150Z,45.80
2018-03-29T10:42:23.616Z,45.40
2018-03-29T10:44:51.162Z,45.40
2018-03-29T10:47:19.563Z,44.70
2018-03-29T10:49:47.123Z,44.70
2018-03-29T10:52:14.615Z,44.40
2018-03-29T10:54:42.107Z,44.70
2018-03-29T10:57:09.622Z,44.70
2018-03-29T10:59:37.938Z,43.90
2018-03-29T11:02:05.418Z,43.80
2018-03-29T11:04:32.894Z,44.60
2018-03-29T11:07:01.188Z,45.00
2018-03-29T11:09:28.751Z,45.00
2018-03-29T11:11:56.231Z,44.40
2018-03-29T11:14:23.869Z,43.50
2018-03-29T11:16:52.196Z,42.60
2018-03-29T11:19:19.677Z,42.40
2018-03-29T11:21:47.211Z,41.90
2018-03-29T11:24:14.704Z,41.70
2018-03-29T11:26:42.202Z,41.90
2018-03-29T11:29:09.734Z,41.70
2018-03-29T11:31:37.430Z,42.10
2018-03-29T11:34:04.918Z,41.50
2018-03-29T11:36:32.503Z,41.00
2018-03-29T11:39:00.035Z,40.80
2018-03-29T11:41:28.272Z,39.60
2018-03-29T11:43:55.776Z,39.60
2018-03-29T11:46:23.240Z,39.10
2018-03-29T11:48:50.713Z,37.30
2018-03-29T11:51:18.264Z,37.40
2018-03-29T11:53:45.770Z,37.40
2018-03-29T11:56:13.261Z,37.20
2018-03-29T11:58:40.774Z,36.90
2018-03-29T12:01:08.260Z,38.20
2018-03-29T12:03:35.724Z,39.10
2018-03-29T12:06:03.336Z,39.70
2018-03-29T12:08:30.964Z,40.00
2018-03-29T12:10:59.256Z,38.00
2018-03-29T12:13:26.820Z,38.00
2018-03-29T12:15:54.306Z,37.50
2018-03-29T12:18:21.806Z,38.00
2018-03-29T12:20:49.317Z,37.70
2018-03-29T12:23:16.876Z,37.50
2018-03-29T12:25:44.438Z,37.50
2018-03-29T12:28:12.862Z,37.90
2018-03-29T12:30:40.445Z,37.40
2018-03-29T12:33:07.921Z,38.40
2018-03-29T12:35:35.436Z,39.20
2018-03-29T12:38:02.938Z,40.20
2018-03-29T12:40:30.498Z,40.40
2018-03-29T12:42:58.058Z,40.50
2018-03-29T12:45:25.544Z,41.10
2018-03-29T12:47:53.807Z,41.00
2018-03-29T12:50:21.549Z,41.00
2018-03-29T12:52:49.005Z,40.90
2018-03-29T12:58:18.017Z,39.70
2018-03-29T13:00:45.584Z,39.60
2018-03-29T13:03:13.090Z,38.80
2018-03-29T13:05:41.921Z,37.90
2018-03-29T13:08:09.429Z,37.80
2018-03-29T13:10:36.967Z,37.90
2018-03-29T13:13:05.209Z,36.80
2018-03-29T13:15:32.694Z,36.80
2018-03-29T13:18:00.210Z,36.90
2018-03-29T13:20:27.709Z,37.10
2018-03-29T13:22:55.218Z,37.00
2018-03-29T13:25:22.742Z,36.90
2018-03-29T13:27:50.241Z,37.10
2018-03-29T13:30:17.720Z,37.20
2018-03-29T13:32:46.135Z,36.80
2018-03-29T13:35:13.633Z,36.80
2018-03-29T13:37:41.923Z,36.40
2018-03-29T13:40:10.230Z,36.80
2018-03-29T13:42:37.728Z,36.80
2018-03-29T13:45:05.239Z,37.20
2018-03-29T13:47:33.549Z,37.30
2018-03-29T13:50:01.029Z,37.30
2018-03-29T13:52:28.529Z,37.10
2018-03-29T13:54:56.838Z,37.00
2018-03-29T13:57:24.387Z,37.00
2018-03-29T13:59:51.906Z,36.60
2018-03-29T14:02:20.230Z,36.40
2018-03-29T14:04:47.718Z,36.30
2018-03-29T14:07:15.989Z,36.30
2018-03-29T14:09:43.501Z,36.20
2018-03-29T14:12:10.982Z,36.20
2018-03-29T14:14:38.461Z,37.00
2018-03-29T14:17:06.076Z,35.90
2018-03-29T14:19:33.580Z,35.70
2018-03-29T14:22:01.193Z,35.50
2018-03-29T14:24:28.691Z,35.90
2018-03-29T14:26:56.263Z,35.00
2018-03-29T14:29:23.807Z,34.70
2018-03-29T14:31:51.285Z,34.40
2018-03-29T14:34:19.013Z,35.00
2018-03-29T14:36:47.273Z,35.40
2018-03-29T14:39:14.894Z,35.40
2018-03-29T14:41:42.557Z,35.60
2018-03-29T14:44:10.043Z,35.10
2018-03-29T14:46:37.543Z,35.30
2018-03-29T14:49:05.174Z,35.50
2018-03-29T14:51:32.695Z,35.50
2018-03-29T14:54:01.003Z,34.40
2018-03-29T14:56:28.547Z,34.30
2018-03-29T14:58:56.054Z,33.90
2018-03-29T15:01:24.356Z,34.20
2018-03-29T15:03:51.821Z,34.10
2018-03-29T15:06:19.371Z,34.90
2018-03-29T15:08:46.850Z,35.30
2018-03-29T15:11:14.335Z,35.40
2018-03-29T15:13:41.923Z,36.00
2018-03-29T15:16:09.342Z,35.90
2018-03-29T15:18:37.572Z,35.80
2018-03-29T15:21:05.064Z,35.70
2018-03-29T15:23:33.352Z,35.20
2018-03-29T15:26:02.063Z,35.00
2018-03-29T15:28:30.145Z,35.00
2018-03-29T15:30:57.650Z,35.10
2018-03-29T15:33:25.171Z,34.80
2018-03-29T15:35:52.675Z,35.20
2018-03-29T15:38:20.192Z,34.20
2018-03-29T15:40:47.684Z,34.10
2018-03-29T15:43:15.994Z,34.40
2018-03-29T15:45:43.569Z,34.20
2018-03-29T15:48:11.072Z,33.90
2018-03-29T15:50:38.557Z,33.10
2018-03-29T15:53:06.193Z,32.70
2018-03-29T15:55:33.751Z,33.20
2018-03-29T15:58:01.255Z,32.80
2018-03-29T16:00:28.733Z,31.90
2018-03-29T16:02:56.991Z,28.50
2018-03-29T16:05:24.510Z,28.50
2018-03-29T16:07:52.002Z,28.60
2018-03-29T16:10:19.505Z,28.60
2018-03-29T16:12:47.087Z,28.50
2018-03-29T16:15:14.904Z,27.20
2018-03-29T16:17:42.454Z,27.30
2018-03-29T16:20:09.982Z,27.70
2018-03-29T16:22:38.221Z,29.60
2018-03-29T16:25:05.723Z,29.50
2018-03-29T16:27:33.914Z,30.60
2018-03-29T16:30:01.410Z,31.70
2018-03-29T16:32:28.928Z,32.50
2018-03-29T16:34:56.416Z,33.40
2018-03-29T16:37:23.935Z,33.90
2018-03-29T16:39:51.525Z,34.20
2018-03-29T16:42:18.999Z,34.90
2018-03-29T16:44:46.512Z,35.40
2018-03-29T16:47:14.082Z,35.60
2018-03-29T16:49:41.616Z,36.40
2018-03-29T16:52:10.232Z,36.80
2018-03-29T16:54:37.742Z,36.70
2018-03-29T16:57:06.041Z,37.10
2018-03-29T16:59:33.553Z,37.00
2018-03-29T17:02:01.047Z,37.50
2018-03-29T17:04:29.289Z,38.70
2018-03-29T17:06:56.765Z,38.60
2018-03-29T17:09:24.238Z,39.10
2018-03-29T17:11:51.723Z,39.30
2018-03-29T17:14:19.209Z,39.70
2018-03-29T17:16:46.720Z,40.20
2018-03-29T17:19:14.236Z,41.10
2018-03-29T17:21:42.475Z,41.00
2018-03-29T17:24:10.005Z,41.00
2018-03-29T17:26:37.577Z,42.10
2018-03-29T17:29:05.854Z,42.20
2018-03-29T17:31:33.334Z,42.50
2018-03-29T17:34:00.796Z,42.90
2018-03-29T17:36:28.285Z,43.10
2018-03-29T17:38:56.518Z,44.20
2018-03-29T17:41:24.060Z,44.20
2018-03-29T17:43:51.559Z,44.20
2018-03-29T17:46:19.071Z,43.90
2018-03-29T17:48:47.337Z,44.60
2018-03-29T17:51:15.054Z,44.00
2018-03-29T17:53:42.560Z,44.20
2018-03-29T17:56:10.079Z,45.10
2018-03-29T17:58:37.595Z,46.70
2018-03-29T18:01:05.115Z,47.80
2018-03-29T18:03:32.621Z,47.50
2018-03-29T18:06:01.315Z,46.60
2018-03-29T18:08:29.625Z,47.10
2018-03-29T18:10:57.112Z,47.00
2018-03-29T18:13:24.641Z,46.60
2018-03-29T18:15:52.157Z,46.10
2018-03-29T18:18:19.674Z,45.40
2018-03-29T18:20:47.213Z,45.00
2018-03-29T18:23:14.645Z,44.90
2018-03-29T18:25:42.272Z,45.40
2018-03-29T18:28:09.749Z,45.50
2018-03-29T18:30:37.258Z,44.90
2018-03-29T18:33:04.914Z,45.10
2018-03-29T18:35:32.439Z,44.80
2018-03-29T18:37:59.986Z,44.70
2018-03-29T18:40:27.493Z,45.30
2018-03-29T18:42:55.107Z,45.20
2018-03-29T18:45:22.606Z,45.80
2018-03-29T18:47:50.083Z,46.10
2018-03-29T18:50:17.598Z,46.10
2018-03-29T18:52:45.080Z,46.60
2018-03-29T18:55:14.148Z,49.50
2018-03-29T18:57:41.659Z,49.50
2018-03-29T19:00:09.139Z,50.70
2018-03-29T19:02:36.655Z,51.80
2018-03-29T19:05:04.198Z,52.30
2018-03-29T19:07:31.873Z,52.40
2018-03-29T19:09:59.364Z,52.90
2018-03-29T19:12:26.861Z,53.60
2018-03-29T19:14:55.131Z,53.90
2018-03-29T19:17:22.628Z,53.80
2018-03-29T19:19:50.148Z,54.10
2018-03-29T19:22:17.690Z,54.50
2018-03-29T19:24:45.173Z,54.80
2018-03-29T19:27:12.693Z,55.10
2018-03-29T19:29:40.245Z,55.70
2018-03-29T19:32:07.847Z,55.50
2018-03-29T19:34:35.401Z,56.50
2018-03-29T19:37:03.699Z,56.50
2018-03-29T19:39:31.947Z,57.30
2018-03-29T19:41:59.565Z,57.30
2018-03-29T19:44:27.125Z,57.50
2018-03-29T19:46:56.205Z,57.90
2018-03-29T19:49:23.733Z,58.00
2018-03-29T19:51:52.001Z,57.80
2018-03-29T19:54:20.239Z,58.20
2018-03-29T19:56:47.719Z,58.20
2018-03-29T19:59:15.788Z,58.70
2018-03-29T20:01:43.287Z,59.40
2018-03-29T20:04:10.771Z,59.80
2018-03-29T20:06:38.387Z,60.40
2018-03-29T20:09:05.877Z,60.90
2018-03-29T20:11:34.141Z,60.80
2018-03-29T20:14:02.394Z,61.20
2018-03-29T20:16:30.806Z,61.00
2018-03-29T20:18:58.306Z,60.90
2018-03-29T20:21:25.807Z,60.30
2018-03-29T20:23:53.314Z,60.20
2018-03-29T20:26:21.554Z,61.00
2018-03-29T20:28:49.088Z,61.00
2018-03-29T20:31:17.370Z,61.70
2018-03-29T20:33:44.943Z,61.60
2018-03-29T20:36:12.436Z,61.90
2018-03-29T20:38:39.958Z,62.30
2018-03-29T20:41:08.280Z,63.10
2018-03-29T20:43:35.768Z,63.10
2018-03-29T20:46:04.039Z,63.70
2018-03-29T20:48:31.620Z,63.60
2018-03-29T20:50:59.179Z,64.00
2018-03-29T20:53:26.834Z,64.10
2018-03-29T20:55:54.519Z,64.50
2018-03-29T20:58:22.046Z,64.60
2018-03-29T21:00:49.548Z,64.80
2018-03-29T21:03:17.871Z,65.20
2018-03-29T21:05:45.352Z,65.20
2018-03-29T21:08:12.846Z,65.40
2018-03-29T21:10:40.354Z,65.60
2018-03-29T21:13:07.864Z,66.50
2018-03-29T21:15:36.139Z,66.00
2018-03-29T21:18:03.628Z,66.00
2018-03-29T21:20:31.160Z,66.50
2018-03-29T21:22:58.722Z,66.50
2018-03-29T21:25:26.221Z,66.60
2018-03-29T21:27:53.735Z,66.50
2018-03-29T21:30:21.210Z,67.10
2018-03-29T21:32:48.739Z,66.50
2018-03-29T21:35:16.359Z,66.50
2018-03-29T21:37:43.811Z,66.50
2018-03-29T21:40:11.324Z,66.70
2018-03-29T21:42:38.816Z,66.40
2018-03-29T21:45:06.321Z,66.50
2018-03-29T21:47:33.909Z,67.20
2018-03-29T21:50:01.438Z,66.20
2018-03-29T21:52:29.740Z,66.60
2018-03-29T21:54:57.245Z,66.60
2018-03-29T21:57:24.771Z,66.40
2018-03-29T21:59:52.426Z,66.10
2018-03-29T22:02:19.923Z,65.90
2018-03-29T22:04:47.444Z,65.40
2018-03-29T22:07:14.930Z,65.20
2018-03-29T22:09:42.432Z,65.20
2018-03-29T22:12:09.965Z,65.20
2018-03-29T22:14:37.551Z,65.40
2018-03-29T22:17:05.801Z,65.90
2018-03-29T22:19:33.367Z,65.80
2018-03-29T22:22:00.807Z,66.40
2018-03-29T22:24:28.297Z,66.70
2018-03-29T22:26:55.804Z,66.50
2018-03-29T22:29:24.044Z,66.70
2018-03-29T22:31:51.574Z,66.70
2018-03-29T22:34:19.049Z,66.60
2018-03-29T22:36:46.545Z,66.20
2018-03-29T22:39:14.028Z,66.20
2018-03-29T22:41:42.295Z,66.80
2018-03-29T22:44:10.587Z,67.30
2018-03-29T22:46:38.063Z,67.20
2018-03-29T22:49:05.615Z,67.40
2018-03-29T22:51:33.103Z,68.10
2018-03-29T22:54:00.585Z,68.10
2018-03-29T22:56:28.204Z,67.80
2018-03-29T22:58:55.727Z,67.40
2018-03-29T23:01:24.001Z,67.50
2018-03-29T23:03:52.854Z,67.80
2018-03-29T23:06:20.513Z,67.60
2018-03-29T23:08:48.015Z,67.40
2018-03-29T23:11:15.633Z,67.30
2018-03-29T23:13:43.131Z,67.50
2018-03-29T23:16:10.632Z,67.70
2018-03-29T23:18:38.911Z,67.90
2018-03-29T23:21:06.453Z,67.90
2018-03-29T23:23:34.460Z,68.30
2018-03-29T23:26:02.012Z,68.60
2018-03-29T23:28:29.507Z,68.50
2018-03-29T23:30:57.021Z,68.50
2018-03-29T23:33:24.500Z,68.20
2018-03-29T23:35:52.781Z,68.40
2018-03-29T23:38:20.316Z,68.30
2018-03-29T23:40:47.795Z,68.50
2018-03-29T23:43:15.291Z,68.40
2018-03-29T23:45:43.604Z,68.70
2018-03-29T23:48:22.053Z,69.20
2018-03-29T23:50:49.538Z,69.10
2018-03-29T23:53:17.063Z,68.60
2018-03-29T23:55:45.069Z,68.80
2018-03-29T23:58:17.311Z,69.20
